createdAt,value
2018-09-06T00:00:20.846Z,17.50
2018-09-06T00:02:48.544Z,17.50
2018-09-06T00:05:16.258Z,17.30
2018-09-06T00:07:43.890Z,17.30
2018-09-06T00:10:11.592Z,17.20
2018-09-06T00:12:39.286Z,17.30
2018-09-06T00:15:06.919Z,17.20
2018-09-06T00:17:38.974Z,17.20
2018-09-06T00:20:06.651Z,17.20
2018-09-06T00:22:34.391Z,17.10
2018-09-06T00:25:02.091Z,17.10
2018-09-06T00:27:29.785Z,17.00
2018-09-06T00:29:57.416Z,17.00
2018-09-06T00:32:25.064Z,17.00
2018-09-06T00:34:52.833Z,16.90
2018-09-06T00:37:20.559Z,16.90
2018-09-06T00:39:48.223Z,16.90
2018-09-06T00:42:15.912Z,16.90
2018-09-06T00:44:43.601Z,16.70
2018-09-06T00:47:11.249Z,16.70
2018-09-06T00:49:39.091Z,16.60
2018-09-06T00:52:06.880Z,16.60
2018-09-06T00:54:34.552Z,16.50
2018-09-06T00:59:47.732Z,16.50
2018-09-06T01:02:15.378Z,16.60
2018-09-06T01:04:43.072Z,16.60
2018-09-06T01:07:10.739Z,16.60
2018-09-06T01:09:38.524Z,16.60
2018-09-06T01:12:06.151Z,16.40
2018-09-06T01:14:33.850Z,16.40
2018-09-06T01:17:01.613Z,16.30
2018-09-06T01:19:29.255Z,16.20
2018-09-06T01:21:56.918Z,16.20
2018-09-06T01:24:24.742Z,16.10
2018-09-06T01:26:52.428Z,16.00
2018-09-06T01:29:20.119Z,16.10
2018-09-06T01:31:47.758Z,16.10
2018-09-06T01:34:15.415Z,16.10
2018-09-06T01:36:47.090Z,16.10
2018-09-06T01:39:15.023Z,16.10
2018-09-06T01:41:42.958Z,16.10
2018-09-06T01:44:10.679Z,16.00
2018-09-06T01:46:38.912Z,15.90
2018-09-06T01:49:06.750Z,15.90
2018-09-06T01:51:34.907Z,15.90
2018-09-06T01:54:02.795Z,15.90
2018-09-06T01:56:30.952Z,15.80
2018-09-06T01:58:58.663Z,15.80
2018-09-06T02:01:26.497Z,15.80
2018-09-06T02:03:54.528Z,15.80
2018-09-06T02:06:22.105Z,15.70
2018-09-06T02:08:49.748Z,15.70
2018-09-06T02:11:17.478Z,15.70
2018-09-06T02:13:45.122Z,15.70
2018-09-06T02:16:12.760Z,15.70
2018-09-06T02:18:40.439Z,15.70
2018-09-06T02:21:08.109Z,15.70
2018-09-06T02:23:35.760Z,15.70
2018-09-06T02:26:03.392Z,15.70
2018-09-06T02:28:31.183Z,15.60
2018-09-06T02:30:58.823Z,15.70
2018-09-06T02:33:26.451Z,15.70
2018-09-06T02:38:56.009Z,15.60
2018-09-06T02:41:23.634Z,15.60
2018-09-06T02:43:51.304Z,15.50
2018-09-06T02:46:19.016Z,15.50
2018-09-06T02:48:46.682Z,15.40
2018-09-06T02:51:16.910Z,15.30
2018-09-06T02:53:44.774Z,15.40
2018-09-06T02:56:13.004Z,15.30
2018-09-06T02:58:40.778Z,15.30
2018-09-06T03:01:08.694Z,15.30
2018-09-06T03:03:36.387Z,15.20
2018-09-06T03:06:04.023Z,15.20
2018-09-06T03:08:31.796Z,15.20
2018-09-06T03:11:06.565Z,15.20
2018-09-06T03:13:34.210Z,15.20
2018-09-06T03:16:02.041Z,15.20
2018-09-06T03:18:29.696Z,15.10
2018-09-06T03:20:57.383Z,15.10
2018-09-06T03:23:25.166Z,15.20
2018-09-06T03:25:52.825Z,15.20
2018-09-06T03:28:21.567Z,15.20
2018-09-06T03:30:49.220Z,15.20
2018-09-06T03:33:16.851Z,15.10
2018-09-06T03:35:44.538Z,15.10
2018-09-06T03:38:12.226Z,15.10
2018-09-06T03:40:39.867Z,15.10
2018-09-06T03:43:07.546Z,15.10
2018-09-06T03:45:35.254Z,15.10
2018-09-06T03:48:02.919Z,15.10
2018-09-06T03:50:30.537Z,15.10
2018-09-06T03:52:58.349Z,15.10
2018-09-06T03:55:26.031Z,15.00
2018-09-06T03:57:53.716Z,14.90
2018-09-06T04:00:21.465Z,14.80
2018-09-06T04:02:49.104Z,14.90
2018-09-06T04:05:16.737Z,14.80
2018-09-06T04:07:44.554Z,14.70
2018-09-06T04:10:12.227Z,14.70
2018-09-06T04:12:39.978Z,14.60
2018-09-06T04:15:07.703Z,14.60
2018-09-06T04:17:35.496Z,14.70
2018-09-06T04:20:03.213Z,14.70
2018-09-06T04:22:30.893Z,14.70
2018-09-06T04:24:58.549Z,14.70
2018-09-06T04:27:26.186Z,14.70
2018-09-06T04:29:53.880Z,14.70
2018-09-06T04:32:21.523Z,14.70
2018-09-06T04:34:49.241Z,14.60
2018-09-06T04:37:16.965Z,14.60
2018-09-06T04:39:44.646Z,14.60
2018-09-06T04:42:12.308Z,14.60
2018-09-06T04:44:40.037Z,14.50
2018-09-06T04:47:07.729Z,14.50
2018-09-06T04:49:35.371Z,14.60
2018-09-06T04:52:03.021Z,14.60
2018-09-06T04:54:30.679Z,14.60
2018-09-06T04:56:58.357Z,14.60
2018-09-06T04:59:26.036Z,14.60
2018-09-06T05:01:53.697Z,14.60
2018-09-06T05:04:21.459Z,14.60
2018-09-06T05:06:49.045Z,14.60
2018-09-06T05:09:16.722Z,14.60
2018-09-06T05:11:44.465Z,14.60
2018-09-06T05:14:12.229Z,14.50
2018-09-06T05:16:41.982Z,14.50
2018-09-06T05:19:09.689Z,14.50
2018-09-06T05:21:39.580Z,14.50
2018-09-06T05:24:08.006Z,14.50
2018-09-06T05:26:36.422Z,14.50
2018-09-06T05:29:04.691Z,14.40
2018-09-06T05:31:33.189Z,14.50
2018-09-06T05:34:01.101Z,14.60
2018-09-06T05:36:29.156Z,14.70
2018-09-06T05:38:57.200Z,14.70
2018-09-06T05:41:26.179Z,14.80
2018-09-06T05:43:54.159Z,14.90
2018-09-06T05:46:22.262Z,15.00
2018-09-06T05:48:52.620Z,15.10
2018-09-06T05:51:22.857Z,15.20
2018-09-06T05:53:50.937Z,15.20
2018-09-06T05:56:18.974Z,15.20
2018-09-06T05:58:48.455Z,15.20
2018-09-06T06:01:16.678Z,15.30
2018-09-06T06:03:45.406Z,15.50
2018-09-06T06:06:13.616Z,15.70
2018-09-06T06:08:43.719Z,15.80
2018-09-06T06:11:11.754Z,16.00
2018-09-06T06:13:40.440Z,16.20
2018-09-06T06:16:08.728Z,16.50
2018-09-06T06:18:36.547Z,16.70
2018-09-06T06:21:12.385Z,17.00
2018-09-06T06:23:40.048Z,17.20
2018-09-06T06:26:07.870Z,17.40
2018-09-06T06:28:35.460Z,17.40
2018-09-06T06:31:03.201Z,17.40
2018-09-06T06:33:31.210Z,17.50
2018-09-06T06:35:58.855Z,17.50
2018-09-06T06:38:26.465Z,17.60
2018-09-06T06:40:54.095Z,17.70
2018-09-06T06:43:21.709Z,17.90
2018-09-06T06:45:49.362Z,18.00
2018-09-06T06:48:16.981Z,18.20
2018-09-06T06:50:44.624Z,18.50
2018-09-06T06:53:12.274Z,18.60
2018-09-06T06:55:39.853Z,18.70
2018-09-06T06:58:07.591Z,18.90
2018-09-06T07:00:41.155Z,19.00
2018-09-06T07:03:09.094Z,19.10
2018-09-06T07:05:36.750Z,19.30
2018-09-06T07:08:04.455Z,19.50
2018-09-06T07:10:35.805Z,19.70
2018-09-06T07:13:03.630Z,19.80
2018-09-06T07:15:31.247Z,20.00
2018-09-06T07:17:59.155Z,20.20
2018-09-06T07:20:26.806Z,20.40
2018-09-06T07:22:54.420Z,20.60
2018-09-06T07:25:22.009Z,20.70
2018-09-06T07:27:49.659Z,20.90
2018-09-06T07:30:55.193Z,21.10
2018-09-06T07:33:22.637Z,21.30
2018-09-06T07:35:50.113Z,21.30
2018-09-06T07:38:17.741Z,21.50
2018-09-06T07:40:45.173Z,21.60
2018-09-06T07:43:12.601Z,21.70
2018-09-06T07:45:40.093Z,21.90
2018-09-06T07:48:07.517Z,22.10
2018-09-06T07:50:34.984Z,22.20
2018-09-06T07:53:02.467Z,22.40
2018-09-06T07:55:29.881Z,22.50
2018-09-06T07:57:57.390Z,22.70
2018-09-06T08:00:29.128Z,22.90
2018-09-06T08:02:56.843Z,23.20
2018-09-06T08:05:24.497Z,23.30
2018-09-06T08:07:52.192Z,23.50
2018-09-06T08:10:19.796Z,23.70
2018-09-06T08:12:47.469Z,23.70
2018-09-06T08:15:15.177Z,23.80
2018-09-06T08:17:42.838Z,23.80
2018-09-06T08:20:10.475Z,23.80
2018-09-06T08:22:38.107Z,23.90
2018-09-06T08:25:05.943Z,23.90
2018-09-06T08:27:33.550Z,24.10
2018-09-06T08:30:01.154Z,24.30
2018-09-06T08:32:28.748Z,24.70
2018-09-06T08:34:56.363Z,25.10
2018-09-06T08:37:23.988Z,25.20
2018-09-06T08:39:51.624Z,25.40
2018-09-06T08:42:24.011Z,25.60
2018-09-06T08:44:51.622Z,25.80
2018-09-06T08:47:19.262Z,26.00
2018-09-06T08:49:46.870Z,26.00
2018-09-06T08:52:14.458Z,25.90
2018-09-06T08:54:42.119Z,25.50
2018-09-06T08:57:09.944Z,25.50
2018-09-06T08:59:37.716Z,25.60
2018-09-06T09:02:09.708Z,25.80
2018-09-06T09:04:37.446Z,25.90
2018-09-06T09:07:05.264Z,26.00
2018-09-06T09:09:32.997Z,26.30
2018-09-06T09:12:00.732Z,26.30
2018-09-06T09:14:28.477Z,26.40
2018-09-06T09:16:56.210Z,26.50
2018-09-06T09:19:23.998Z,26.60
2018-09-06T09:21:54.186Z,26.80
2018-09-06T09:24:23.308Z,26.80
2018-09-06T09:26:51.578Z,26.80
2018-09-06T09:29:19.613Z,26.70
2018-09-06T09:31:47.679Z,26.70
2018-09-06T09:34:15.537Z,26.60
2018-09-06T09:36:43.576Z,26.50
2018-09-06T09:39:11.407Z,26.40
2018-09-06T09:41:39.440Z,26.30
2018-09-06T09:44:07.197Z,26.20
2018-09-06T09:49:02.450Z,26.20
2018-09-06T09:51:30.670Z,26.20
2018-09-06T09:54:01.543Z,26.20
2018-09-06T09:56:34.496Z,26.30
2018-09-06T09:59:02.415Z,26.40
2018-09-06T10:01:36.321Z,26.50
2018-09-06T10:04:09.373Z,26.80
2018-09-06T10:06:42.448Z,26.90
2018-09-06T10:09:15.220Z,27.00
2018-09-06T10:11:54.885Z,27.00
2018-09-06T10:14:22.608Z,27.00
2018-09-06T10:16:50.255Z,27.10
2018-09-06T10:19:18.106Z,27.10
2018-09-06T10:21:45.726Z,27.20
2018-09-06T10:24:13.358Z,27.40
2018-09-06T10:26:41.304Z,27.40
2018-09-06T10:29:08.995Z,27.50
2018-09-06T10:31:36.655Z,27.40
2018-09-06T10:34:04.383Z,27.50
2018-09-06T10:36:32.649Z,27.60
2018-09-06T10:39:00.321Z,27.60
2018-09-06T10:41:27.962Z,27.60
2018-09-06T10:43:56.084Z,27.60
2018-09-06T10:46:23.703Z,27.40
2018-09-06T10:48:51.446Z,27.50
2018-09-06T10:51:19.201Z,27.60
2018-09-06T10:53:46.835Z,27.50
2018-09-06T10:56:14.546Z,27.50
2018-09-06T10:58:42.398Z,27.50
2018-09-06T11:01:20.847Z,27.60
2018-09-06T11:03:48.785Z,27.70
2018-09-06T11:06:16.546Z,27.90
2018-09-06T11:08:44.197Z,28.00
2018-09-06T11:11:12.023Z,28.10
2018-09-06T11:13:39.826Z,28.20
2018-09-06T11:16:07.597Z,28.30
2018-09-06T11:18:35.278Z,28.40
2018-09-06T11:21:03.478Z,28.70
2018-09-06T11:23:31.346Z,28.60
2018-09-06T11:25:59.053Z,28.60
2018-09-06T11:28:26.822Z,28.60
2018-09-06T11:33:47.695Z,29.00
2018-09-06T11:36:15.524Z,29.10
2018-09-06T11:38:43.285Z,29.30
2018-09-06T11:41:10.956Z,29.50
2018-09-06T11:43:38.618Z,29.30
2018-09-06T11:46:06.627Z,29.40
2018-09-06T11:48:34.430Z,29.50
2018-09-06T11:51:02.147Z,29.40
2018-09-06T11:53:30.285Z,29.20
2018-09-06T11:56:04.338Z,28.60
2018-09-06T11:58:32.019Z,28.80
2018-09-06T12:00:59.908Z,28.70
2018-09-06T12:03:27.610Z,28.70
2018-09-06T12:05:55.311Z,28.70
2018-09-06T12:08:22.964Z,28.60
2018-09-06T12:10:50.696Z,28.40
2018-09-06T12:13:19.619Z,28.30
2018-09-06T12:15:47.243Z,28.00
2018-09-06T12:18:15.019Z,27.70
2018-09-06T12:20:42.887Z,27.50
2018-09-06T12:23:10.565Z,27.40
2018-09-06T12:25:38.436Z,27.10
2018-09-06T12:28:06.091Z,27.10
2018-09-06T12:30:33.801Z,27.10
2018-09-06T12:33:01.496Z,27.10
2018-09-06T12:35:29.311Z,26.80
2018-09-06T12:37:57.145Z,26.80
2018-09-06T12:40:24.855Z,26.80
2018-09-06T12:42:52.564Z,26.70
2018-09-06T12:45:20.236Z,26.60
2018-09-06T12:47:48.359Z,26.50
2018-09-06T12:50:16.023Z,26.50
2018-09-06T12:52:43.858Z,26.70
2018-09-06T12:55:11.939Z,27.10
2018-09-06T12:57:40.948Z,27.40
2018-09-06T13:00:08.712Z,27.60
2018-09-06T13:02:36.403Z,27.60
2018-09-06T13:05:04.335Z,27.40
2018-09-06T13:07:32.136Z,27.20
2018-09-06T13:10:00.044Z,27.10
2018-09-06T13:12:28.681Z,27.00
2018-09-06T13:14:56.495Z,27.00
2018-09-06T13:17:24.207Z,27.00
2018-09-06T13:19:52.145Z,26.80
2018-09-06T13:22:19.871Z,26.80
2018-09-06T13:24:47.621Z,26.80
2018-09-06T13:27:15.446Z,26.80
2018-09-06T13:29:44.177Z,26.70
2018-09-06T13:32:11.970Z,26.60
2018-09-06T13:34:39.743Z,26.50
2018-09-06T13:37:07.473Z,26.30
2018-09-06T13:39:35.205Z,26.00
2018-09-06T13:42:14.718Z,25.90
2018-09-06T13:44:42.724Z,25.80
2018-09-06T13:47:10.499Z,25.70
2018-09-06T13:49:38.254Z,25.70
2018-09-06T13:52:06.022Z,25.70
2018-09-06T13:54:33.747Z,25.70
2018-09-06T13:57:02.438Z,25.70
2018-09-06T13:59:30.098Z,25.70
2018-09-06T14:01:58.099Z,25.70
2018-09-06T14:04:25.889Z,25.80
2018-09-06T14:06:53.509Z,25.90
2018-09-06T14:09:21.310Z,25.90
2018-09-06T14:11:49.017Z,25.90
2018-09-06T14:14:16.723Z,25.90
2018-09-06T14:16:44.372Z,26.00
2018-09-06T14:19:11.992Z,26.00
2018-09-06T14:21:39.937Z,26.10
2018-09-06T14:24:07.824Z,26.20
2018-09-06T14:26:35.517Z,26.40
2018-09-06T14:29:03.288Z,26.40
2018-09-06T14:31:30.935Z,26.40
2018-09-06T14:33:58.583Z,26.30
2018-09-06T14:39:13.316Z,26.20
2018-09-06T14:41:42.537Z,26.10
2018-09-06T14:44:10.385Z,26.00
2018-09-06T14:46:37.983Z,25.80
2018-09-06T14:49:05.922Z,25.60
2018-09-06T14:51:33.578Z,25.60
2018-09-06T14:54:07.902Z,25.50
2018-09-06T14:56:35.533Z,25.40
2018-09-06T14:59:04.145Z,25.40
2018-09-06T15:01:31.843Z,25.20
2018-09-06T15:03:59.446Z,25.10
2018-09-06T15:06:27.457Z,24.80
2018-09-06T15:08:55.108Z,24.60
2018-09-06T15:11:22.822Z,24.50
2018-09-06T15:13:50.576Z,24.30
2018-09-06T15:16:18.260Z,24.30
2018-09-06T15:18:46.265Z,24.30
2018-09-06T15:21:13.890Z,24.10
2018-09-06T15:23:41.531Z,24.00
2018-09-06T15:26:09.345Z,24.10
2018-09-06T15:28:37.062Z,24.10
2018-09-06T15:31:04.735Z,24.10
2018-09-06T15:33:32.490Z,24.10
2018-09-06T15:36:00.324Z,24.10
2018-09-06T15:38:28.304Z,24.10
2018-09-06T15:40:56.331Z,24.10
2018-09-06T15:43:24.212Z,24.20
2018-09-06T15:45:51.863Z,24.30
2018-09-06T15:48:19.535Z,24.30
2018-09-06T15:50:47.221Z,24.40
2018-09-06T15:53:14.912Z,24.50
2018-09-06T15:55:43.027Z,24.60
2018-09-06T15:58:10.743Z,24.60
2018-09-06T16:00:38.434Z,24.60
2018-09-06T16:03:09.697Z,24.60
2018-09-06T16:05:39.745Z,24.60
2018-09-06T16:08:08.110Z,24.70
2018-09-06T16:10:36.920Z,24.70
2018-09-06T16:13:07.792Z,24.80
2018-09-06T16:15:37.691Z,24.90
2018-09-06T16:18:05.625Z,25.00
2018-09-06T16:20:36.380Z,25.00
2018-09-06T16:23:04.567Z,25.10
2018-09-06T16:25:32.338Z,25.00
2018-09-06T16:28:17.962Z,24.90
2018-09-06T16:30:46.622Z,24.80
2018-09-06T16:33:15.718Z,24.60
2018-09-06T16:35:44.579Z,24.50
2018-09-06T16:38:12.500Z,24.50
2018-09-06T16:40:42.434Z,24.50
2018-09-06T16:46:25.418Z,24.30
2018-09-06T18:27:05.264Z,22.30
2018-09-06T18:29:41.865Z,22.30
2018-09-06T19:48:47.462Z,22.20
2018-09-06T19:51:15.131Z,21.00
2018-09-06T19:53:42.883Z,20.90
2018-09-06T19:56:10.551Z,20.80
2018-09-06T19:58:38.142Z,20.60
2018-09-06T20:01:05.802Z,20.50
2018-09-06T20:03:37.397Z,20.30
2018-09-06T20:06:05.029Z,20.20
2018-09-06T20:08:45.979Z,20.20
2018-09-06T20:11:13.644Z,20.20
2018-09-06T20:13:41.340Z,20.10
2018-09-06T20:16:08.941Z,20.00
2018-09-06T20:18:36.553Z,20.00
2018-09-06T20:21:04.390Z,20.00
2018-09-06T20:23:32.159Z,20.10
2018-09-06T20:25:59.874Z,20.10
2018-09-06T20:28:27.550Z,20.00
2018-09-06T20:30:55.232Z,20.00
2018-09-06T20:36:22.980Z,19.90
2018-09-06T20:38:50.702Z,19.90
2018-09-06T20:41:18.442Z,19.80
2018-09-06T20:43:46.048Z,19.80
2018-09-06T20:46:13.717Z,19.80
2018-09-06T20:48:41.315Z,19.70
2018-09-06T20:51:08.939Z,19.70
2018-09-06T20:53:36.699Z,19.70
2018-09-06T20:56:05.151Z,19.70
2018-09-06T20:58:32.781Z,19.70
2018-09-06T21:01:00.438Z,19.70
2018-09-06T21:03:28.082Z,19.80
2018-09-06T21:05:55.814Z,19.80
2018-09-06T21:08:23.524Z,19.70
2018-09-06T21:10:51.281Z,19.70
2018-09-06T21:13:18.995Z,19.70
2018-09-06T21:15:46.723Z,19.70
2018-09-06T21:18:14.374Z,19.60
2018-09-06T21:20:42.049Z,19.60
2018-09-06T21:23:09.675Z,19.60
2018-09-06T21:25:37.288Z,19.60
2018-09-06T21:28:04.969Z,19.60
2018-09-06T21:30:32.686Z,19.40
2018-09-06T21:33:00.330Z,19.40
2018-09-06T21:35:27.963Z,19.40
2018-09-06T21:37:55.602Z,19.40
2018-09-06T21:40:23.237Z,19.50
2018-09-06T21:42:50.837Z,19.40
2018-09-06T21:45:18.465Z,19.50
2018-09-06T21:47:46.093Z,19.50
2018-09-06T21:50:13.772Z,19.50
2018-09-06T21:52:41.403Z,19.50
2018-09-06T21:55:09.066Z,19.60
2018-09-06T21:57:36.649Z,19.60
2018-09-06T22:00:04.795Z,19.60
2018-09-06T22:02:37.989Z,19.60
2018-09-06T22:05:05.777Z,19.60
2018-09-06T22:07:33.370Z,19.60
2018-09-06T22:10:01.020Z,19.60
2018-09-06T22:12:28.704Z,19.60
2018-09-06T22:14:56.347Z,19.60
2018-09-06T22:17:23.995Z,19.50
2018-09-06T22:19:51.665Z,19.60
2018-09-06T22:22:19.321Z,19.60
2018-09-06T22:24:47.002Z,19.60
2018-09-06T22:27:14.623Z,19.50
2018-09-06T22:29:42.309Z,19.50
2018-09-06T22:32:10.036Z,19.40
2018-09-06T22:34:37.706Z,19.40
2018-09-06T22:37:05.405Z,19.30
2018-09-06T22:39:33.027Z,19.30
2018-09-06T22:42:00.681Z,19.40
2018-09-06T22:44:28.353Z,19.40
2018-09-06T22:46:56.018Z,19.40
2018-09-06T22:49:23.669Z,19.40
2018-09-06T22:51:51.281Z,19.30
2018-09-06T22:54:18.913Z,19.30
2018-09-06T22:56:46.631Z,19.30
2018-09-06T22:59:14.302Z,19.30
2018-09-06T23:01:43.006Z,19.30
2018-09-06T23:04:10.728Z,19.30
2018-09-06T23:06:38.326Z,19.20
2018-09-06T23:09:06.772Z,19.10
2018-09-06T23:11:34.459Z,19.10
2018-09-06T23:14:02.239Z,19.10
2018-09-06T23:16:30.881Z,19.00
2018-09-06T23:18:58.619Z,19.00
2018-09-06T23:21:26.402Z,19.00
2018-09-06T23:23:54.013Z,19.00
2018-09-06T23:26:21.650Z,19.00
2018-09-06T23:28:49.300Z,19.10
2018-09-06T23:31:17.063Z,19.00
2018-09-06T23:33:44.762Z,19.00
2018-09-06T23:36:12.432Z,19.00
2018-09-06T23:38:40.116Z,18.90
2018-09-06T23:41:07.847Z,18.90
2018-09-06T23:43:35.535Z,18.80
2018-09-06T23:46:03.248Z,18.80
2018-09-06T23:48:30.913Z,18.80
2018-09-06T23:50:58.913Z,18.70
2018-09-06T23:53:27.530Z,18.70
2018-09-06T23:55:55.222Z,18.70
2018-09-06T23:58:23.058Z,18.80
